Time;durP1;ratioP1;P1;durP2;ratioP2;P2;SDS_P1;SDS_P2;PMS_P1;PMS_P2;Temp;Humidity;BMP_temperature;BMP_pressure;BME280_temperature;BME280_humidity;BME280_pressure;Samples;Min_cycle;Max_cycle;Signal;HPM_P1;HPM_P2
2023/08/07 00:01:16;;;;;;;3.88;1.52;;;;;;;-144.48;100.00;62369.91;4986338;28;20026;-68
2023/08/07 00:03:42;;;;;;;3.03;1.77;;;;;;;-144.48;100.00;62369.91;4985839;28;20053;-67
2023/08/07 00:06:07;;;;;;;4.10;1.80;;;;;;;-144.48;100.00;62369.91;4987110;28;20038;-66
2023/08/07 00:08:33;;;;;;;9.48;2.00;;;;;;;-144.48;100.00;62369.91;4987129;28;20027;-66
2023/08/07 00:11:05;;;;;;;3.25;1.48;;;;;;;-144.48;100.00;62369.91;4986831;28;20030;-67
2023/08/07 00:13:31;;;;;;;3.05;1.70;;;;;;;-144.48;100.00;62369.91;4988725;28;20514;-67
2023/08/07 00:15:56;;;;;;;2.25;1.50;;;;;;;-144.48;100.00;62369.91;4990865;28;20161;-68
2023/08/07 00:18:21;;;;;;;4.78;1.80;;;;;;;-144.48;100.00;62369.91;4991072;28;20037;-64
2023/08/07 00:20:47;;;;;;;3.95;1.67;;;;;;;-144.48;100.00;62369.91;4990352;28;20030;-67
2023/08/07 00:23:12;;;;;;;2.95;1.45;;;;;;;-144.48;100.00;62369.91;4987864;28;20509;-64
2023/08/07 00:25:37;;;;;;;3.72;1.63;;;;;;;-144.48;100.00;62369.91;4990383;28;20375;-67
2023/08/07 00:28:03;;;;;;;2.95;1.25;;;;;;;-144.48;100.00;62369.91;4990520;28;20475;-67
2023/08/07 00:30:28;;;;;;;3.33;1.52;;;;;;;-144.48;100.00;62369.91;4990667;28;20502;-67
2023/08/07 00:32:54;;;;;;;2.92;1.50;;;;;;;-144.48;100.00;62369.91;4990512;28;20130;-65
2023/08/07 00:35:20;;;;;;;7.30;1.45;;;;;;;-144.48;100.00;62369.91;5004945;28;20034;-65
2023/08/07 00:37:45;;;;;;;5.50;1.58;;;;;;;-144.48;100.00;62369.91;4988859;28;20478;-65
2023/08/07 00:40:11;;;;;;;4.28;1.70;;;;;;;-144.48;100.00;62369.91;4990589;28;20478;-64
2023/08/07 00:42:36;;;;;;;2.63;1.48;;;;;;;-144.48;100.00;62369.91;4990206;28;20045;-68
2023/08/07 00:45:02;;;;;;;3.58;1.77;;;;;;;-144.48;100.00;62369.91;4990138;28;20113;-64
2023/08/07 00:47:28;;;;;;;2.55;1.48;;;;;;;-144.48;100.00;62369.91;4990131;28;20033;-67
2023/08/07 00:49:53;;;;;;;2.45;1.40;;;;;;;-144.48;100.00;62369.91;4990088;28;20056;-64
2023/08/07 00:52:19;;;;;;;2.67;1.38;;;;;;;-144.48;100.00;62369.91;4990147;28;20026;-67
2023/08/07 00:54:45;;;;;;;3.72;1.33;;;;;;;-144.48;100.00;62369.91;4989802;28;20030;-67
2023/08/07 00:57:12;;;;;;;3.00;1.50;;;;;;;-144.48;100.00;62369.91;4990152;28;20022;-65
2023/08/07 00:59:38;;;;;;;3.35;1.50;;;;;;;-144.48;100.00;62369.91;4987586;28;20026;-67
2023/08/07 01:02:04;;;;;;;2.25;1.40;;;;;;;-144.48;100.00;62369.91;4988528;28;20045;-65
2023/08/07 01:04:31;;;;;;;4.53;1.90;;;;;;;-144.48;100.00;62369.91;4988992;28;20026;-68
2023/08/07 01:06:56;;;;;;;2.63;1.40;;;;;;;-144.48;100.00;62369.91;4987362;28;20023;-66
2023/08/07 01:09:21;;;;;;;5.68;1.60;;;;;;;-144.48;100.00;62369.91;4988710;28;20037;-67
2023/08/07 01:11:54;;;;;;;2.85;1.58;;;;;;;-144.48;100.00;62369.91;4989639;28;20081;-67
2023/08/07 01:14:40;;;;;;;5.40;1.80;;;;;;;-144.48;100.00;62369.91;4989663;28;20037;-67
2023/08/07 01:17:15;;;;;;;4.32;1.80;;;;;;;-144.48;100.00;62369.91;4989990;28;20046;-65
2023/08/07 01:19:41;;;;;;;6.55;1.58;;;;;;;-144.48;100.00;62369.91;4989335;28;20022;-66
2023/08/07 01:22:11;;;;;;;4.63;1.58;;;;;;;-144.48;100.00;62369.91;4989748;28;20113;-65
2023/08/07 01:24:37;;;;;;;6.20;2.00;;;;;;;-144.48;100.00;62369.91;4989329;28;20508;-64
2023/08/07 01:27:19;;;;;;;3.88;1.67;;;;;;;-144.48;100.00;62369.91;4989638;28;20077;-66
2023/08/07 01:30:02;;;;;;;3.47;1.70;;;;;;;-144.48;100.00;62369.91;4977421;28;20074;-67
2023/08/07 01:33:07;;;;;;;5.50;1.75;;;;;;;-144.48;100.00;62369.91;4987960;28;20054;-66
2023/08/07 01:35:40;;;;;;;3.00;1.85;;;;;;;-144.48;100.00;62369.91;4988528;28;20497;-67
2023/08/07 01:38:07;;;;;;;12.60;2.28;;;;;;;-144.48;100.00;62369.91;4988236;28;20133;-66
2023/08/07 01:40:33;;;;;;;3.42;2.08;;;;;;;-144.48;100.00;62369.91;4988544;28;20078;-67
2023/08/07 01:42:59;;;;;;;4.90;2.08;;;;;;;-144.48;100.00;62369.91;4989978;28;20030;-65
2023/08/07 01:45:26;;;;;;;4.60;2.00;;;;;;;-144.48;100.00;62369.91;4988337;28;20049;-64
2023/08/07 01:47:52;;;;;;;5.10;2.03;;;;;;;-144.48;100.00;62369.91;4989032;28;20022;-66
2023/08/07 01:50:22;;;;;;;3.85;2.00;;;;;;;-144.48;100.00;62369.91;4990319;28;20090;-65
2023/08/07 01:52:47;;;;;;;4.43;1.90;;;;;;;-144.48;100.00;62369.91;4991487;28;20128;-64
2023/08/07 01:55:14;;;;;;;5.05;2.40;;;;;;;-144.48;100.00;62369.91;4994407;28;20086;-66
2023/08/07 01:57:39;;;;;;;6.40;1.90;;;;;;;-144.48;100.00;62369.91;4995525;28;20026;-66
2023/08/07 02:00:05;;;;;;;8.13;2.25;;;;;;;-144.48;100.00;62369.91;4992254;28;20065;-67
2023/08/07 02:02:31;;;;;;;4.43;1.77;;;;;;;-144.48;100.00;62369.91;4989617;28;20037;-66
2023/08/07 02:04:56;;;;;;;3.95;2.15;;;;;;;-144.48;100.00;62369.91;4988051;28;20221;-67
2023/08/07 02:07:21;;;;;;;3.55;1.92;;;;;;;-144.48;100.00;62369.91;4988899;28;20132;-67
2023/08/07 02:09:47;;;;;;;8.75;2.17;;;;;;;-144.48;100.00;62369.91;4988731;28;20165;-64
2023/08/07 02:12:12;;;;;;;5.78;2.10;;;;;;;-144.48;100.00;62369.91;4988940;28;20026;-66
2023/08/07 02:14:37;;;;;;;5.22;1.88;;;;;;;-144.48;100.00;62369.91;4988536;28;20108;-66
2023/08/07 02:17:03;;;;;;;7.40;3.15;;;;;;;-144.48;100.00;62369.91;4989056;28;20041;-67
2023/08/07 02:19:29;;;;;;;3.72;1.90;;;;;;;-144.48;100.00;62369.91;4988522;28;20120;-66
2023/08/07 02:21:54;;;;;;;9.85;2.17;;;;;;;-144.48;100.00;62369.91;4988805;28;20030;-67
2023/08/07 02:24:20;;;;;;;2.75;1.60;;;;;;;-144.48;100.00;62369.91;4987976;28;20038;-68
2023/08/07 02:26:45;;;;;;;4.70;1.95;;;;;;;-144.48;100.00;62369.91;4989147;28;20100;-67
2023/08/07 02:29:11;;;;;;;4.15;2.42;;;;;;;-144.48;100.00;62369.91;4987201;28;20431;-68
2023/08/07 02:31:36;;;;;;;6.15;2.38;;;;;;;-144.48;100.00;62369.91;4987236;28;20113;-65
2023/08/07 02:34:01;;;;;;;8.43;2.20;;;;;;;-144.48;100.00;62369.91;4988271;28;20053;-66
2023/08/07 02:36:27;;;;;;;5.50;2.40;;;;;;;-144.48;100.00;62369.91;4987969;28;20113;-65
2023/08/07 02:38:52;;;;;;;6.65;2.50;;;;;;;-144.48;100.00;62369.91;4987359;28;20022;-66
2023/08/07 02:41:17;;;;;;;5.15;2.42;;;;;;;-144.48;100.00;62369.91;4986673;28;20034;-65
2023/08/07 02:43:43;;;;;;;7.30;2.67;;;;;;;-144.48;100.00;62369.91;4987655;28;20038;-66
2023/08/07 02:46:08;;;;;;;7.45;2.70;;;;;;;-144.48;100.00;62369.91;4988486;28;20453;-64
2023/08/07 02:48:34;;;;;;;3.38;2.05;;;;;;;-144.48;100.00;62369.91;4988366;28;20172;-67
2023/08/07 02:50:59;;;;;;;10.88;2.75;;;;;;;-144.48;100.00;62369.91;4988483;28;20038;-67
2023/08/07 02:53:24;;;;;;;8.65;2.97;;;;;;;-144.48;100.00;62369.91;4988536;28;20026;-64
2023/08/07 02:55:50;;;;;;;9.50;2.67;;;;;;;-144.48;100.00;62369.91;4988582;28;20122;-66
2023/08/07 02:58:15;;;;;;;9.65;2.85;;;;;;;-144.48;100.00;62369.91;4986824;28;20455;-64
2023/08/07 03:00:40;;;;;;;4.15;2.40;;;;;;;-144.48;100.00;62369.91;4988431;28;20434;-65
2023/08/07 03:03:06;;;;;;;5.72;2.42;;;;;;;-144.48;100.00;62369.91;4986784;28;20384;-66
2023/08/07 03:05:31;;;;;;;4.38;2.28;;;;;;;-144.48;100.00;62369.91;4986324;28;20083;-66
2023/08/07 03:07:56;;;;;;;8.75;2.25;;;;;;;-144.48;100.00;62369.91;4988074;28;20369;-65
2023/08/07 03:10:22;;;;;;;10.73;2.35;;;;;;;-144.48;100.00;62369.91;4988735;28;20456;-67
2023/08/07 03:12:47;;;;;;;6.28;1.90;;;;;;;-144.48;100.00;62369.91;4988132;28;20571;-65
2023/08/07 03:15:12;;;;;;;4.25;2.05;;;;;;;-144.48;100.00;62369.91;4988539;28;20030;-66
2023/08/07 03:17:38;;;;;;;9.23;1.63;;;;;;;-144.48;100.00;62369.91;4988367;28;20032;-66
2023/08/07 03:20:04;;;;;;;3.17;1.70;;;;;;;-144.48;100.00;62369.91;4988518;28;20033;-64
2023/08/07 03:22:29;;;;;;;4.82;2.00;;;;;;;-144.48;100.00;62369.91;4987914;28;20038;-66
2023/08/07 03:24:55;;;;;;;4.43;2.00;;;;;;;-144.48;100.00;62369.91;4987782;28;20358;-67
2023/08/07 03:27:20;;;;;;;6.22;2.30;;;;;;;-144.48;100.00;62369.91;4987631;28;20114;-66
2023/08/07 03:29:46;;;;;;;5.00;2.38;;;;;;;-144.48;100.00;62369.91;4987656;28;20068;-65
2023/08/07 03:32:11;;;;;;;4.03;2.15;;;;;;;-144.48;100.00;62369.91;4987729;28;20034;-67
2023/08/07 03:34:36;;;;;;;5.18;1.90;;;;;;;-144.48;100.00;62369.91;4987713;28;20064;-66
2023/08/07 03:37:02;;;;;;;8.85;2.17;;;;;;;-144.48;100.00;62369.91;4988018;28;20023;-67
2023/08/07 03:39:27;;;;;;;5.70;1.92;;;;;;;-144.48;100.00;62369.91;4986336;28;20022;-66
2023/08/07 03:41:53;;;;;;;5.07;2.22;;;;;;;-144.48;100.00;62369.91;4986857;28;20464;-65
2023/08/07 03:44:18;;;;;;;7.90;3.30;;;;;;;-144.48;100.00;62369.91;4987360;28;20037;-67
2023/08/07 03:46:43;;;;;;;5.20;2.67;;;;;;;-144.48;100.00;62369.91;4986745;28;20031;-65
2023/08/07 03:49:09;;;;;;;6.25;2.50;;;;;;;-144.48;100.00;62369.91;4991742;28;20026;-68
2023/08/07 03:51:34;;;;;;;5.15;3.00;;;;;;;-144.48;100.00;62369.91;4989562;28;20052;-67
2023/08/07 03:53:59;;;;;;;6.75;2.60;;;;;;;-144.48;100.00;62369.91;4991012;28;20022;-64
2023/08/07 03:56:25;;;;;;;4.45;2.70;;;;;;;-144.48;100.00;62369.91;4991861;28;20425;-67
2023/08/07 03:58:50;;;;;;;4.97;2.83;;;;;;;-144.48;100.00;62369.91;4991277;28;20564;-67
2023/08/07 04:01:16;;;;;;;10.25;2.60;;;;;;;-144.48;100.00;62369.91;4991450;28;20069;-67
2023/08/07 04:03:42;;;;;;;7.25;2.85;;;;;;;-144.48;100.00;62369.91;4990837;28;20425;-64
2023/08/07 04:06:07;;;;;;;7.85;2.60;;;;;;;-144.48;100.00;62369.91;4991072;28;20018;-67
2023/08/07 04:08:33;;;;;;;6.13;2.45;;;;;;;-144.48;100.00;62369.91;4991064;28;20022;-66
2023/08/07 04:11:04;;;;;;;7.00;2.72;;;;;;;-144.48;100.00;62369.91;4990154;28;20037;-67
2023/08/07 04:13:31;;;;;;;3.63;2.17;;;;;;;-144.48;100.00;62369.91;4978126;28;20608;-66
2023/08/07 04:15:57;;;;;;;7.80;2.80;;;;;;;-144.48;100.00;62369.91;4990833;28;20046;-66
2023/08/07 04:18:22;;;;;;;6.25;2.75;;;;;;;-144.48;100.00;62369.91;4991244;28;20026;-64
2023/08/07 04:20:54;;;;;;;5.40;2.40;;;;;;;-144.48;100.00;62369.91;4991036;28;20029;-67
2023/08/07 04:23:20;;;;;;;5.38;2.22;;;;;;;-144.48;100.00;62369.91;4990977;28;20469;-68
2023/08/07 04:25:50;;;;;;;8.35;2.65;;;;;;;-144.48;100.00;62369.91;4990764;28;20046;-65
2023/08/07 04:28:15;;;;;;;4.68;2.17;;;;;;;-144.48;100.00;62369.91;4991040;28;20153;-67
2023/08/07 04:30:41;;;;;;;7.43;1.92;;;;;;;-144.48;100.00;62369.91;4990837;28;20115;-67
2023/08/07 04:33:07;;;;;;;7.20;2.00;;;;;;;-144.48;100.00;62369.91;4994104;28;20137;-65
2023/08/07 04:35:33;;;;;;;4.78;2.22;;;;;;;-144.48;100.00;62369.91;4998596;28;20129;-64
2023/08/07 04:37:58;;;;;;;4.88;2.20;;;;;;;-144.48;100.00;62369.91;4997717;28;20025;-66
2023/08/07 04:40:24;;;;;;;7.65;1.60;;;;;;;-144.48;100.00;62369.91;4995990;28;20017;-66
2023/08/07 04:42:49;;;;;;;5.43;1.48;;;;;;;-144.48;100.00;62369.91;4998783;28;20034;-66
2023/08/07 04:45:15;;;;;;;3.17;1.35;;;;;;;-144.48;100.00;62369.91;5000233;28;20026;-66
2023/08/07 04:47:41;;;;;;;5.93;1.67;;;;;;;-144.48;100.00;62369.91;5000004;28;20449;-67
2023/08/07 04:50:07;;;;;;;4.10;1.65;;;;;;;-144.48;100.00;62369.91;4998454;28;20023;-69
2023/08/07 04:52:32;;;;;;;2.70;1.27;;;;;;;-144.48;100.00;62369.91;5000998;28;20030;-67
2023/08/07 04:54:57;;;;;;;3.03;1.08;;;;;;;-144.48;100.00;62369.91;4996555;28;20026;-69
2023/08/07 04:57:23;;;;;;;3.03;1.40;;;;;;;-144.48;100.00;62369.91;4990718;28;20030;-65
2023/08/07 04:59:48;;;;;;;5.95;1.30;;;;;;;-144.48;100.00;62369.91;4989907;28;20034;-67
2023/08/07 05:02:14;;;;;;;7.18;1.48;;;;;;;-144.48;100.00;62369.91;4990249;28;20026;-68
2023/08/07 05:04:39;;;;;;;6.25;1.70;;;;;;;-144.48;100.00;62369.91;4989680;28;20034;-67
2023/08/07 05:07:05;;;;;;;4.07;1.35;;;;;;;-144.48;100.00;62369.91;4989823;28;20038;-67
2023/08/07 05:09:30;;;;;;;2.53;1.40;;;;;;;-144.48;100.00;62369.91;4989857;28;20033;-66
2023/08/07 05:11:56;;;;;;;3.03;1.30;;;;;;;-144.48;100.00;62369.91;4990246;28;20030;-67
2023/08/07 05:14:21;;;;;;;3.53;1.38;;;;;;;-144.48;100.00;62369.91;4989761;28;20381;-65
2023/08/07 05:16:48;;;;;;;5.35;1.13;;;;;;;-144.48;100.00;62369.91;4990180;28;20389;-67
2023/08/07 05:19:13;;;;;;;3.35;1.00;;;;;;;-144.48;100.00;62369.91;4989853;28;20109;-67
2023/08/07 05:21:38;;;;;;;4.72;1.50;;;;;;;-144.48;100.00;62369.91;4989630;28;20113;-66
2023/08/07 05:24:05;;;;;;;5.10;1.30;;;;;;;-144.48;100.00;62369.91;4989731;28;20029;-65
2023/08/07 05:26:30;;;;;;;3.10;1.40;;;;;;;-144.48;100.00;62369.91;4990086;28;20038;-66
2023/08/07 05:28:57;;;;;;;2.70;1.55;;;;;;;-144.48;100.00;62369.91;4989920;28;20034;-67
2023/08/07 05:31:23;;;;;;;4.10;1.50;;;;;;;-144.48;100.00;62369.91;4988602;28;20046;-67
2023/08/07 05:33:49;;;;;;;3.70;1.33;;;;;;;-144.48;100.00;62369.91;4989347;28;20045;-66
2023/08/07 05:36:14;;;;;;;4.65;1.80;;;;;;;-144.48;100.00;62369.91;4990118;28;20026;-64
2023/08/07 05:38:42;;;;;;;2.95;1.30;;;;;;;-144.48;100.00;62369.91;4988790;28;20018;-68
2023/08/07 05:41:09;;;;;;;3.80;1.35;;;;;;;-144.48;100.00;62369.91;4989713;28;20105;-68
2023/08/07 05:43:34;;;;;;;3.05;1.50;;;;;;;-144.48;100.00;62369.91;4988794;28;20548;-66
2023/08/07 05:45:59;;;;;;;3.85;1.42;;;;;;;-144.48;100.00;62369.91;4990012;28;20097;-67
2023/08/07 05:48:25;;;;;;;4.20;1.75;;;;;;;-144.48;100.00;62369.91;4989958;28;20037;-66
2023/08/07 05:50:51;;;;;;;7.97;1.70;;;;;;;-144.48;100.00;62369.91;4988252;28;20065;-67
2023/08/07 05:53:16;;;;;;;4.57;1.50;;;;;;;-144.48;100.00;62369.91;4989115;28;20030;-67
2023/08/07 05:55:42;;;;;;;2.38;1.25;;;;;;;-144.48;100.00;62369.91;4989886;28;20050;-65
2023/08/07 05:58:08;;;;;;;11.15;1.80;;;;;;;-144.48;100.00;62369.91;4988908;28;20480;-69
2023/08/07 06:00:33;;;;;;;5.32;1.50;;;;;;;-144.48;100.00;62369.91;4989050;28;20026;-67
2023/08/07 06:02:59;;;;;;;3.80;1.50;;;;;;;-144.48;100.00;62369.91;4988699;28;20034;-66
2023/08/07 06:05:24;;;;;;;4.57;1.40;;;;;;;-144.48;100.00;62369.91;4989386;28;20028;-67
2023/08/07 06:07:49;;;;;;;2.17;1.35;;;;;;;-144.48;100.00;62369.91;4988920;28;20030;-66
2023/08/07 06:10:15;;;;;;;3.72;1.40;;;;;;;-144.48;100.00;62369.91;4988279;28;20093;-67
2023/08/07 06:12:41;;;;;;;3.08;1.48;;;;;;;-144.48;100.00;62369.91;4989342;28;20030;-66
2023/08/07 06:15:06;;;;;;;5.93;1.55;;;;;;;-144.48;100.00;62369.91;4988507;28;20134;-67
2023/08/07 06:17:32;;;;;;;1.85;1.10;;;;;;;-144.48;100.00;62369.91;4989863;28;20597;-67
2023/08/07 06:19:57;;;;;;;2.92;1.30;;;;;;;-144.48;100.00;62369.91;4989049;28;20030;-68
2023/08/07 06:22:22;;;;;;;4.82;1.63;;;;;;;-144.48;100.00;62369.91;4988990;28;20428;-68
2023/08/07 06:24:48;;;;;;;2.92;1.50;;;;;;;-144.48;100.00;62369.91;4990342;28;20030;-66
2023/08/07 06:27:14;;;;;;;3.50;1.27;;;;;;;-144.48;100.00;62369.91;4994123;28;20030;-67
2023/08/07 06:29:39;;;;;;;4.65;1.60;;;;;;;-144.48;100.00;62369.91;4991628;28;20041;-64
2023/08/07 06:32:05;;;;;;;2.63;1.20;;;;;;;-144.48;100.00;62369.91;4991003;28;20595;-68
2023/08/07 06:34:31;;;;;;;2.15;1.20;;;;;;;-144.48;100.00;62369.91;4988388;28;20088;-65
2023/08/07 06:36:56;;;;;;;2.75;1.33;;;;;;;-144.48;100.00;62369.91;4988760;28;20030;-68
2023/08/07 06:39:22;;;;;;;3.72;1.48;;;;;;;-144.48;100.00;62369.91;4986554;28;20056;-68
2023/08/07 06:41:47;;;;;;;2.60;1.35;;;;;;;-144.48;100.00;62369.91;4986489;28;20431;-70
2023/08/07 06:44:12;;;;;;;4.22;1.55;;;;;;;-144.48;100.00;62369.91;4987365;28;20105;-64
2023/08/07 06:46:38;;;;;;;3.50;1.30;;;;;;;-144.48;100.00;62369.91;4986248;28;20515;-68
2023/08/07 06:49:03;;;;;;;4.93;1.70;;;;;;;-144.48;100.00;62369.91;4988300;28;20041;-68
2023/08/07 06:51:29;;;;;;;1.88;0.95;;;;;;;-144.48;100.00;62369.91;4988858;28;20045;-66
2023/08/07 06:53:54;;;;;;;2.42;1.15;;;;;;;-144.48;100.00;62369.91;4987536;28;20492;-67
2023/08/07 06:56:19;;;;;;;6.72;1.25;;;;;;;-144.48;100.00;62369.91;4988622;28;20041;-66
2023/08/07 06:58:45;;;;;;;1.48;0.90;;;;;;;-144.48;100.00;62369.91;4976804;28;20027;-69
2023/08/07 07:01:10;;;;;;;3.13;1.25;;;;;;;-144.48;100.00;62369.91;4988022;28;20034;-67
2023/08/07 07:03:36;;;;;;;5.55;1.08;;;;;;;-144.48;100.00;62369.91;4987597;28;20603;-68
2023/08/07 07:06:01;;;;;;;1.25;0.80;;;;;;;-144.48;100.00;62369.91;4987800;28;20088;-64
2023/08/07 07:08:27;;;;;;;3.17;1.10;;;;;;;-144.48;100.00;62369.91;4987253;28;20373;-68
2023/08/07 07:10:52;;;;;;;1.05;0.80;;;;;;;-144.48;100.00;62369.91;4989398;28;20092;-68
2023/08/07 07:13:18;;;;;;;3.33;1.10;;;;;;;-144.48;100.00;62369.91;4986997;28;20495;-67
2023/08/07 07:15:43;;;;;;;1.85;0.93;;;;;;;-144.48;100.00;62369.91;4987468;28;20045;-68
2023/08/07 07:18:08;;;;;;;10.70;1.13;;;;;;;-144.48;100.00;62369.91;4988314;28;20018;-64
2023/08/07 07:20:34;;;;;;;2.20;0.90;;;;;;;-144.48;100.00;62369.91;4985606;28;20041;-68
2023/08/07 07:22:59;;;;;;;3.35;1.00;;;;;;;-144.48;100.00;62369.91;4991602;28;20504;-66
2023/08/07 07:25:24;;;;;;;1.90;0.80;;;;;;;-144.48;100.00;62369.91;4991949;28;20035;-70
2023/08/07 07:27:50;;;;;;;2.80;1.08;;;;;;;-144.48;100.00;62369.91;4977989;28;20041;-68
2023/08/07 07:30:15;;;;;;;2.08;0.73;;;;;;;-144.48;100.00;62369.91;4989947;28;20123;-69
2023/08/07 07:32:41;;;;;;;3.72;0.80;;;;;;;-144.48;100.00;62369.91;4986356;28;20510;-65
2023/08/07 07:35:07;;;;;;;0.73;0.68;;;;;;;-144.48;100.00;62369.91;4991414;28;20425;-67
2023/08/07 07:37:32;;;;;;;5.00;0.98;;;;;;;-144.48;100.00;62369.91;4990863;28;20812;-67
2023/08/07 07:39:57;;;;;;;1.55;0.80;;;;;;;-144.48;100.00;62369.91;4987515;28;20161;-64
2023/08/07 07:42:23;;;;;;;1.60;0.77;;;;;;;-144.48;100.00;62369.91;4992320;28;20483;-68
2023/08/07 07:44:48;;;;;;;3.03;0.82;;;;;;;-144.48;100.00;62369.91;4991170;28;20034;-66
2023/08/07 07:47:14;;;;;;;2.75;1.00;;;;;;;-144.48;100.00;62369.91;4987918;28;20022;-67
2023/08/07 07:49:39;;;;;;;1.20;0.80;;;;;;;-144.48;100.00;62369.91;4989385;28;20154;-68
2023/08/07 07:52:06;;;;;;;1.20;0.77;;;;;;;-144.48;100.00;62369.91;4991508;28;20594;-68
2023/08/07 07:54:31;;;;;;;1.35;0.90;;;;;;;-144.48;100.00;62369.91;4987001;28;20030;-66
2023/08/07 07:56:57;;;;;;;0.63;0.63;;;;;;;-144.48;100.00;62369.91;4990947;28;20033;-65
2023/08/07 07:59:22;;;;;;;1.33;0.75;;;;;;;-144.48;100.00;62369.91;4991063;28;20022;-67
2023/08/07 08:01:48;;;;;;;1.63;0.85;;;;;;;-144.48;100.00;62369.91;4987980;28;20055;-67
2023/08/07 08:04:13;;;;;;;2.22;0.90;;;;;;;-144.48;100.00;62369.91;4990278;28;20113;-68
2023/08/07 08:06:40;;;;;;;1.52;0.88;;;;;;;-144.48;100.00;62369.91;4990223;28;20204;-67
2023/08/07 08:09:08;;;;;;;0.80;0.60;;;;;;;-144.48;100.00;62369.91;4987752;28;20062;-67
2023/08/07 08:11:33;;;;;;;1.38;0.65;;;;;;;-144.48;100.00;62369.91;4988765;28;20088;-68
2023/08/07 08:13:59;;;;;;;1.08;0.70;;;;;;;-144.48;100.00;62369.91;4988462;28;20479;-68
2023/08/07 08:16:24;;;;;;;2.58;0.98;;;;;;;-144.48;100.00;62369.91;4994344;28;20100;-67
2023/08/07 08:18:49;;;;;;;2.97;0.80;;;;;;;-144.48;100.00;62369.91;4990659;28;20026;-67
2023/08/07 08:21:15;;;;;;;6.82;0.80;;;;;;;-144.48;100.00;62369.91;4990374;28;20369;-67
2023/08/07 08:23:40;;;;;;;1.75;0.85;;;;;;;-144.48;100.00;62369.91;4991082;28;20048;-67
2023/08/07 08:26:05;;;;;;;2.17;0.50;;;;;;;-144.48;100.00;62369.91;4990653;28;20030;-66
2023/08/07 08:28:31;;;;;;;1.50;0.77;;;;;;;-144.48;100.00;62369.91;4990206;28;20030;-67
2023/08/07 08:30:56;;;;;;;1.70;0.68;;;;;;;-144.48;100.00;62369.91;4988550;28;20038;-64
2023/08/07 08:33:21;;;;;;;1.25;0.55;;;;;;;-144.48;100.00;62369.91;4989187;28;20038;-68
2023/08/07 08:35:47;;;;;;;3.20;0.80;;;;;;;-144.48;100.00;62369.91;4989680;28;20337;-67
2023/08/07 08:38:12;;;;;;;1.42;0.80;;;;;;;-144.48;100.00;62369.91;4989138;28;20030;-68
2023/08/07 08:40:39;;;;;;;3.95;1.30;;;;;;;-144.48;100.00;62369.91;4989695;28;20022;-68
2023/08/07 08:43:05;;;;;;;2.67;0.75;;;;;;;-144.48;100.00;62369.91;4989828;28;20034;-68
2023/08/07 08:45:32;;;;;;;1.33;0.82;;;;;;;-144.48;100.00;62369.91;4988281;28;20030;-68
2023/08/07 08:48:03;;;;;;;2.08;1.10;;;;;;;-144.48;100.00;62369.91;4987157;28;20092;-67
2023/08/07 08:50:29;;;;;;;2.10;1.20;;;;;;;-144.48;100.00;62369.91;4988726;28;20072;-66
2023/08/07 08:52:56;;;;;;;2.88;1.10;;;;;;;-144.48;100.00;62369.91;4989745;28;20042;-68
2023/08/07 08:55:23;;;;;;;2.70;1.00;;;;;;;-144.48;100.00;62369.91;4987280;28;20121;-68
2023/08/07 08:57:49;;;;;;;3.00;1.10;;;;;;;-144.48;100.00;62369.91;4989003;28;20030;-68
2023/08/07 09:00:21;;;;;;;1.75;1.00;;;;;;;-144.48;100.00;62369.91;4988789;28;20022;-67
2023/08/07 09:02:50;;;;;;;2.95;1.00;;;;;;;-144.48;100.00;62369.91;4990204;28;20029;-68
2023/08/07 09:05:19;;;;;;;5.95;1.05;;;;;;;-144.48;100.00;62369.91;4983856;28;20114;-69
2023/08/07 09:07:46;;;;;;;;;;;;;;;-144.48;100.00;62369.91;4989894;28;20076;-65
2023/08/07 09:10:13;;;;;;;7.10;0.80;;;;;;;-144.48;100.00;62369.91;4990082;28;20375;-66
2023/08/07 09:12:45;;;;;;;2.63;1.17;;;;;;;-144.48;100.00;62369.91;4989566;28;20045;-65
2023/08/07 09:15:15;;;;;;;2.85;1.05;;;;;;;-144.48;100.00;62369.91;4988538;28;20177;-68
2023/08/07 09:17:43;;;;;;;1.35;0.88;;;;;;;-144.48;100.00;62369.91;4989068;28;20489;-65
2023/08/07 09:20:13;;;;;;;2.63;0.90;;;;;;;-144.48;100.00;62369.91;4988030;28;20034;-67
2023/08/07 09:22:41;;;;;;;2.58;0.90;;;;;;;-144.48;100.00;62369.91;4985163;28;20049;-66
2023/08/07 09:25:07;;;;;;;1.55;0.80;;;;;;;-144.48;100.00;62369.91;4988651;28;20477;-66
2023/08/07 09:27:33;;;;;;;3.38;0.93;;;;;;;-144.48;100.00;62369.91;4988459;28;20054;-67
2023/08/07 09:29:59;;;;;;;1.40;0.80;;;;;;;-144.48;100.00;62369.91;4988933;28;20026;-66
2023/08/07 09:32:24;;;;;;;1.23;0.80;;;;;;;-144.48;100.00;62369.91;4985405;28;20125;-65
2023/08/07 09:34:51;;;;;;;4.28;1.10;;;;;;;-144.48;100.00;62369.91;4986859;28;20029;-64
2023/08/07 09:37:17;;;;;;;2.55;0.70;;;;;;;-144.48;100.00;62369.91;4987004;28;20026;-67
2023/08/07 09:39:42;;;;;;;2.50;0.75;;;;;;;-144.48;100.00;62369.91;4988049;28;20085;-66
2023/08/07 09:42:15;;;;;;;0.88;0.70;;;;;;;-144.48;100.00;62369.91;4988835;28;20451;-67
2023/08/07 09:44:41;;;;;;;3.17;0.80;;;;;;;-144.48;100.00;62369.91;4988989;28;20030;-65
2023/08/07 09:47:13;;;;;;;2.88;0.88;;;;;;;-144.48;100.00;62369.91;4985768;28;20052;-68
2023/08/07 09:49:39;;;;;;;1.13;0.75;;;;;;;-144.48;100.00;62369.91;4987954;28;20125;-69
2023/08/07 09:52:07;;;;;;;1.42;0.70;;;;;;;-144.48;100.00;62369.91;4987164;28;20108;-67
2023/08/07 09:54:33;;;;;;;1.80;0.70;;;;;;;-144.48;100.00;62369.91;4984349;28;20026;-66
2023/08/07 09:57:01;;;;;;;1.77;0.77;;;;;;;-144.48;100.00;62369.91;4988676;28;20053;-68
2023/08/07 09:59:27;;;;;;;1.52;0.80;;;;;;;-144.48;100.00;62369.91;4988393;28;21252;-66
2023/08/07 10:01:53;;;;;;;1.30;0.73;;;;;;;-144.48;100.00;62369.91;4984440;28;20026;-68
2023/08/07 10:04:18;;;;;;;1.25;0.90;;;;;;;-144.48;100.00;62369.91;4986566;28;20436;-68
2023/08/07 10:06:46;;;;;;;1.85;0.50;;;;;;;-144.48;100.00;62369.91;4987493;28;20030;-66
2023/08/07 10:09:11;;;;;;;1.23;0.70;;;;;;;-144.48;100.00;62369.91;4987924;28;20041;-66
2023/08/07 10:11:39;;;;;;;0.90;0.52;;;;;;;-144.48;100.00;62369.91;4987470;28;20030;-66
2023/08/07 10:14:05;;;;;;;2.00;0.70;;;;;;;-144.48;100.00;62369.91;4987577;28;20030;-67
2023/08/07 10:16:30;;;;;;;1.42;0.65;;;;;;;-144.48;100.00;62369.91;4986908;28;20053;-66
2023/08/07 10:18:56;;;;;;;0.57;0.57;;;;;;;-144.48;100.00;62369.91;4988600;28;20030;-69
2023/08/07 10:21:23;;;;;;;3.78;0.52;;;;;;;-144.48;100.00;62369.91;4987955;28;20030;-69
2023/08/07 10:23:52;;;;;;;1.33;0.60;;;;;;;-144.48;100.00;62369.91;4981421;28;20030;-69
2023/08/07 10:26:19;;;;;;;1.52;0.70;;;;;;;-144.48;100.00;62369.91;4983854;28;20034;-68
2023/08/07 10:28:46;;;;;;;2.58;0.90;;;;;;;-144.48;100.00;62369.91;4985765;28;20026;-72
2023/08/07 10:31:13;;;;;;;1.40;0.52;;;;;;;-144.48;100.00;62369.91;4988400;28;20161;-68
2023/08/07 10:33:40;;;;;;;1.20;0.73;;;;;;;-144.48;100.00;62369.91;4986055;28;20037;-68
2023/08/07 10:36:10;;;;;;;1.17;0.60;;;;;;;-144.48;100.00;62369.91;4982696;28;20607;-67
2023/08/07 10:38:35;;;;;;;0.95;0.60;;;;;;;-144.48;100.00;62369.91;4985725;28;20049;-69
2023/08/07 10:41:09;;;;;;;2.28;0.68;;;;;;;-144.48;100.00;62369.91;4988369;28;20488;-67
2023/08/07 10:43:43;;;;;;;0.50;0.47;;;;;;;-144.48;100.00;62369.91;4974276;28;20113;-67
2023/08/07 10:46:13;;;;;;;1.30;0.68;;;;;;;-144.48;100.00;62369.91;4981860;28;20045;-68
2023/08/07 10:48:43;;;;;;;1.85;0.70;;;;;;;-144.48;100.00;62369.91;4981767;28;20396;-69
2023/08/07 10:51:12;;;;;;;1.08;0.70;;;;;;;-144.48;100.00;62369.91;4980239;28;20445;-69
2023/08/07 10:53:44;;;;;;;1.73;0.70;;;;;;;-144.48;100.00;62369.91;4978694;28;20086;-68
2023/08/07 10:56:30;;;;;;;0.63;0.50;;;;;;;-144.48;100.00;62369.91;4980315;28;20026;-69
2023/08/07 10:58:55;;;;;;;2.35;0.95;;;;;;;-144.48;100.00;62369.91;4977623;28;20030;-71
2023/08/07 11:01:22;;;;;;;1.13;0.68;;;;;;;-144.48;100.00;62369.91;4981603;28;20072;-69
2023/08/07 11:03:54;;;;;;;2.70;0.93;;;;;;;-144.48;100.00;62369.91;4979486;28;20026;-73
2023/08/07 11:06:31;;;;;;;1.17;0.75;;;;;;;-144.48;100.00;62369.91;4979671;28;20030;-71